sensor_id;sensor_type;location;lat;lon;timestamp;P1;durP1;ratioP1;P2;durP2;ratioP2
31692;SDS011;37436;53.230;6.614;2022-10-15T00:00:53;98.90;;;34.88;;
31692;SDS011;37436;53.230;6.614;2022-10-15T00:03:19;113.28;;;37.97;;
31692;SDS011;37436;53.230;6.614;2022-10-15T00:05:45;98.75;;;34.70;;
31692;SDS011;37436;53.230;6.614;2022-10-15T00:08:11;98.32;;;36.15;;
31692;SDS011;37436;53.230;6.614;2022-10-15T00:10:38;111.57;;;37.00;;
31692;SDS011;37436;53.230;6.614;2022-10-15T00:13:04;110.95;;;37.85;;
31692;SDS011;37436;53.230;6.614;2022-10-15T00:15:30;104.50;;;36.53;;
31692;SDS011;37436;53.230;6.614;2022-10-15T00:17:56;97.00;;;34.33;;
31692;SDS011;37436;53.230;6.614;2022-10-15T00:20:23;111.20;;;38.65;;
31692;SDS011;37436;53.230;6.614;2022-10-15T00:22:49;101.55;;;37.08;;
31692;SDS011;37436;53.230;6.614;2022-10-15T00:25:15;106.07;;;38.03;;
31692;SDS011;37436;53.230;6.614;2022-10-15T00:27:41;104.28;;;37.50;;
31692;SDS011;37436;53.230;6.614;2022-10-15T00:30:07;102.07;;;37.22;;
31692;SDS011;37436;53.230;6.614;2022-10-15T00:32:33;105.53;;;37.35;;
31692;SDS011;37436;53.230;6.614;2022-10-15T00:34:59;101.55;;;34.15;;
31692;SDS011;37436;53.230;6.614;2022-10-15T00:37:25;105.47;;;33.42;;
31692;SDS011;37436;53.230;6.614;2022-10-15T00:39:51;87.75;;;32.67;;
31692;SDS011;37436;53.230;6.614;2022-10-15T00:42:17;111.18;;;37.92;;
31692;SDS011;37436;53.230;6.614;2022-10-15T00:44:48;105.85;;;38.05;;
31692;SDS011;37436;53.230;6.614;2022-10-15T00:47:16;109.95;;;39.13;;
31692;SDS011;37436;53.230;6.614;2022-10-15T00:49:47;109.47;;;36.47;;
31692;SDS011;37436;53.230;6.614;2022-10-15T00:52:22;103.38;;;36.38;;
31692;SDS011;37436;53.230;6.614;2022-10-15T00:54:52;101.43;;;33.95;;
31692;SDS011;37436;53.230;6.614;2022-10-15T00:57:19;111.05;;;38.13;;
31692;SDS011;37436;53.230;6.614;2022-10-15T00:59:53;113.13;;;37.13;;
31692;SDS011;37436;53.230;6.614;2022-10-15T01:02:35;94.43;;;35.33;;
31692;SDS011;37436;53.230;6.614;2022-10-15T01:05:01;92.75;;;31.77;;
31692;SDS011;37436;53.230;6.614;2022-10-15T01:07:27;99.03;;;37.30;;
31692;SDS011;37436;53.230;6.614;2022-10-15T01:09:53;101.43;;;38.47;;
31692;SDS011;37436;53.230;6.614;2022-10-15T01:12:25;107.70;;;39.63;;
31692;SDS011;37436;53.230;6.614;2022-10-15T01:17:27;118.63;;;37.70;;
31692;SDS011;37436;53.230;6.614;2022-10-15T01:27:44;94.82;;;34.50;;
31692;SDS011;37436;53.230;6.614;2022-10-15T01:30:25;109.43;;;37.17;;
31692;SDS011;37436;53.230;6.614;2022-10-15T01:43:02;103.32;;;34.72;;
31692;SDS011;37436;53.230;6.614;2022-10-15T01:45:39;99.57;;;35.75;;
31692;SDS011;37436;53.230;6.614;2022-10-15T01:48:06;91.47;;;33.20;;
31692;SDS011;37436;53.230;6.614;2022-10-15T01:50:34;101.85;;;36.20;;
31692;SDS011;37436;53.230;6.614;2022-10-15T01:53:02;99.00;;;34.67;;
31692;SDS011;37436;53.230;6.614;2022-10-15T01:55:29;111.55;;;34.75;;
31692;SDS011;37436;53.230;6.614;2022-10-15T01:57:55;105.28;;;36.00;;
31692;SDS011;37436;53.230;6.614;2022-10-15T02:00:22;115.25;;;38.28;;
31692;SDS011;37436;53.230;6.614;2022-10-15T02:02:59;92.80;;;33.47;;
31692;SDS011;37436;53.230;6.614;2022-10-15T02:05:26;87.57;;;33.67;;
31692;SDS011;37436;53.230;6.614;2022-10-15T02:10:27;106.47;;;34.08;;
31692;SDS011;37436;53.230;6.614;2022-10-15T02:13:10;80.72;;;28.77;;
31692;SDS011;37436;53.230;6.614;2022-10-15T02:15:49;91.97;;;34.40;;
31692;SDS011;37436;53.230;6.614;2022-10-15T02:18:24;102.28;;;35.95;;
31692;SDS011;37436;53.230;6.614;2022-10-15T02:26:04;108.22;;;35.75;;
31692;SDS011;37436;53.230;6.614;2022-10-15T02:28:32;97.65;;;35.55;;
31692;SDS011;37436;53.230;6.614;2022-10-15T02:30:59;103.97;;;33.22;;
31692;SDS011;37436;53.230;6.614;2022-10-15T02:33:26;98.88;;;33.38;;
31692;SDS011;37436;53.230;6.614;2022-10-15T02:35:54;101.72;;;33.50;;
31692;SDS011;37436;53.230;6.614;2022-10-15T02:38:23;106.43;;;36.40;;
31692;SDS011;37436;53.230;6.614;2022-10-15T02:40:50;103.22;;;34.35;;
31692;SDS011;37436;53.230;6.614;2022-10-15T02:43:17;84.03;;;27.52;;
31692;SDS011;37436;53.230;6.614;2022-10-15T02:45:44;101.03;;;34.90;;
31692;SDS011;37436;53.230;6.614;2022-10-15T02:48:10;90.40;;;33.70;;
31692;SDS011;37436;53.230;6.614;2022-10-15T02:50:36;103.13;;;34.10;;
31692;SDS011;37436;53.230;6.614;2022-10-15T02:53:02;94.82;;;34.92;;
31692;SDS011;37436;53.230;6.614;2022-10-15T02:55:28;69.63;;;31.13;;
31692;SDS011;37436;53.230;6.614;2022-10-15T02:57:54;96.80;;;34.40;;
31692;SDS011;37436;53.230;6.614;2022-10-15T03:00:21;92.80;;;34.30;;
31692;SDS011;37436;53.230;6.614;2022-10-15T03:02:47;101.88;;;35.47;;
31692;SDS011;37436;53.230;6.614;2022-10-15T03:05:13;92.43;;;35.20;;
31692;SDS011;37436;53.230;6.614;2022-10-15T03:07:39;95.22;;;34.88;;
31692;SDS011;37436;53.230;6.614;2022-10-15T03:10:05;91.85;;;32.10;;
31692;SDS011;37436;53.230;6.614;2022-10-15T03:12:31;98.25;;;34.58;;
31692;SDS011;37436;53.230;6.614;2022-10-15T03:14:57;93.00;;;35.72;;
31692;SDS011;37436;53.230;6.614;2022-10-15T03:17:23;92.85;;;35.88;;
31692;SDS011;37436;53.230;6.614;2022-10-15T03:19:49;87.47;;;32.42;;
31692;SDS011;37436;53.230;6.614;2022-10-15T03:22:15;92.22;;;34.40;;
31692;SDS011;37436;53.230;6.614;2022-10-15T03:24:41;85.25;;;33.63;;
31692;SDS011;37436;53.230;6.614;2022-10-15T03:27:08;91.03;;;35.17;;
31692;SDS011;37436;53.230;6.614;2022-10-15T03:29:34;99.38;;;34.15;;
31692;SDS011;37436;53.230;6.614;2022-10-15T03:32:00;91.40;;;32.88;;
31692;SDS011;37436;53.230;6.614;2022-10-15T03:34:26;84.70;;;32.08;;
31692;SDS011;37436;53.230;6.614;2022-10-15T03:36:52;84.85;;;32.53;;
31692;SDS011;37436;53.230;6.614;2022-10-15T03:39:20;90.25;;;31.55;;
31692;SDS011;37436;53.230;6.614;2022-10-15T03:41:46;84.60;;;29.27;;
31692;SDS011;37436;53.230;6.614;2022-10-15T03:44:12;99.10;;;35.60;;
31692;SDS011;37436;53.230;6.614;2022-10-15T03:46:38;96.25;;;33.97;;
31692;SDS011;37436;53.230;6.614;2022-10-15T03:49:04;70.50;;;26.20;;
31692;SDS011;37436;53.230;6.614;2022-10-15T03:51:30;91.15;;;35.25;;
31692;SDS011;37436;53.230;6.614;2022-10-15T03:53:56;95.90;;;33.38;;
31692;SDS011;37436;53.230;6.614;2022-10-15T03:56:22;92.57;;;35.90;;
31692;SDS011;37436;53.230;6.614;2022-10-15T03:58:48;98.45;;;37.63;;
31692;SDS011;37436;53.230;6.614;2022-10-15T04:01:15;95.00;;;33.60;;
31692;SDS011;37436;53.230;6.614;2022-10-15T04:03:41;98.07;;;35.40;;
31692;SDS011;37436;53.230;6.614;2022-10-15T04:06:08;87.90;;;32.45;;
31692;SDS011;37436;53.230;6.614;2022-10-15T04:08:41;98.05;;;34.80;;
31692;SDS011;37436;53.230;6.614;2022-10-15T04:11:07;85.40;;;33.03;;
31692;SDS011;37436;53.230;6.614;2022-10-15T04:13:33;84.50;;;32.17;;
31692;SDS011;37436;53.230;6.614;2022-10-15T04:16:05;87.68;;;33.47;;
31692;SDS011;37436;53.230;6.614;2022-10-15T04:18:31;88.85;;;33.30;;
31692;SDS011;37436;53.230;6.614;2022-10-15T04:20:58;93.38;;;36.53;;
31692;SDS011;37436;53.230;6.614;2022-10-15T04:23:24;94.40;;;32.72;;
31692;SDS011;37436;53.230;6.614;2022-10-15T04:25:50;90.55;;;30.58;;
31692;SDS011;37436;53.230;6.614;2022-10-15T04:28:16;100.57;;;34.35;;
31692;SDS011;37436;53.230;6.614;2022-10-15T04:30:42;90.90;;;30.55;;
31692;SDS011;37436;53.230;6.614;2022-10-15T04:33:08;92.88;;;30.40;;
31692;SDS011;37436;53.230;6.614;2022-10-15T04:35:34;37.92;;;16.15;;
31692;SDS011;37436;53.230;6.614;2022-10-15T04:38:00;91.47;;;31.80;;
31692;SDS011;37436;53.230;6.614;2022-10-15T04:40:26;100.47;;;31.27;;
31692;SDS011;37436;53.230;6.614;2022-10-15T04:42:52;109.32;;;35.00;;
31692;SDS011;37436;53.230;6.614;2022-10-15T04:45:18;96.20;;;34.55;;
31692;SDS011;37436;53.230;6.614;2022-10-15T04:47:44;124.82;;;38.05;;
31692;SDS011;37436;53.230;6.614;2022-10-15T04:50:10;113.93;;;37.47;;
31692;SDS011;37436;53.230;6.614;2022-10-15T04:52:36;111.32;;;38.05;;
31692;SDS011;37436;53.230;6.614;2022-10-15T04:55:02;97.63;;;32.95;;
31692;SDS011;37436;53.230;6.614;2022-10-15T04:57:29;113.47;;;36.00;;
31692;SDS011;37436;53.230;6.614;2022-10-15T04:59:55;112.85;;;37.03;;
31692;SDS011;37436;53.230;6.614;2022-10-15T05:02:21;112.93;;;36.97;;
31692;SDS011;37436;53.230;6.614;2022-10-15T05:04:47;110.93;;;35.05;;
31692;SDS011;37436;53.230;6.614;2022-10-15T05:07:13;102.78;;;33.95;;
31692;SDS011;37436;53.230;6.614;2022-10-15T05:09:39;118.68;;;36.85;;
31692;SDS011;37436;53.230;6.614;2022-10-15T05:12:05;120.30;;;36.50;;
31692;SDS011;37436;53.230;6.614;2022-10-15T05:14:31;125.28;;;38.15;;
31692;SDS011;37436;53.230;6.614;2022-10-15T05:16:59;104.70;;;32.15;;
31692;SDS011;37436;53.230;6.614;2022-10-15T05:19:25;120.88;;;37.70;;
31692;SDS011;37436;53.230;6.614;2022-10-15T05:21:51;122.40;;;37.10;;
31692;SDS011;37436;53.230;6.614;2022-10-15T05:24:17;110.13;;;34.50;;
31692;SDS011;37436;53.230;6.614;2022-10-15T05:26:43;120.25;;;36.95;;
31692;SDS011;37436;53.230;6.614;2022-10-15T05:29:09;120.57;;;37.25;;
31692;SDS011;37436;53.230;6.614;2022-10-15T05:31:35;122.18;;;38.72;;
31692;SDS011;37436;53.230;6.614;2022-10-15T05:34:05;113.45;;;36.83;;
31692;SDS011;37436;53.230;6.614;2022-10-15T05:36:31;138.27;;;38.88;;
31692;SDS011;37436;53.230;6.614;2022-10-15T05:38:59;118.40;;;37.85;;
31692;SDS011;37436;53.230;6.614;2022-10-15T05:41:25;115.35;;;37.00;;
31692;SDS011;37436;53.230;6.614;2022-10-15T05:43:52;133.70;;;37.10;;
31692;SDS011;37436;53.230;6.614;2022-10-15T05:46:19;118.95;;;35.60;;
31692;SDS011;37436;53.230;6.614;2022-10-15T05:48:49;134.07;;;40.75;;
31692;SDS011;37436;53.230;6.614;2022-10-15T05:51:15;144.32;;;40.67;;
31692;SDS011;37436;53.230;6.614;2022-10-15T05:53:41;122.20;;;41.97;;
31692;SDS011;37436;53.230;6.614;2022-10-15T05:56:08;146.40;;;44.45;;
31692;SDS011;37436;53.230;6.614;2022-10-15T05:58:34;128.05;;;40.63;;
31692;SDS011;37436;53.230;6.614;2022-10-15T06:01:01;141.18;;;43.08;;
31692;SDS011;37436;53.230;6.614;2022-10-15T06:03:27;146.02;;;42.47;;
31692;SDS011;37436;53.230;6.614;2022-10-15T06:05:53;159.13;;;44.88;;
31692;SDS011;37436;53.230;6.614;2022-10-15T06:08:20;146.55;;;43.65;;
31692;SDS011;37436;53.230;6.614;2022-10-15T06:10:46;140.18;;;40.58;;
31692;SDS011;37436;53.230;6.614;2022-10-15T06:13:12;135.15;;;42.92;;
31692;SDS011;37436;53.230;6.614;2022-10-15T06:15:42;140.98;;;43.25;;
31692;SDS011;37436;53.230;6.614;2022-10-15T06:18:09;147.38;;;44.00;;
31692;SDS011;37436;53.230;6.614;2022-10-15T06:20:35;163.32;;;50.00;;
31692;SDS011;37436;53.230;6.614;2022-10-15T06:23:01;101.55;;;35.03;;
31692;SDS011;37436;53.230;6.614;2022-10-15T06:25:28;144.35;;;43.42;;
31692;SDS011;37436;53.230;6.614;2022-10-15T06:27:54;162.32;;;45.72;;
31692;SDS011;37436;53.230;6.614;2022-10-15T06:30:20;111.03;;;35.70;;
31692;SDS011;37436;53.230;6.614;2022-10-15T06:32:47;132.45;;;42.05;;
31692;SDS011;37436;53.230;6.614;2022-10-15T06:35:14;154.15;;;45.85;;
31692;SDS011;37436;53.230;6.614;2022-10-15T06:37:40;164.18;;;48.13;;
31692;SDS011;37436;53.230;6.614;2022-10-15T06:40:06;203.10;;;38.40;;
31692;SDS011;37436;53.230;6.614;2022-10-15T06:42:33;122.57;;;36.65;;
31692;SDS011;37436;53.230;6.614;2022-10-15T06:44:59;152.32;;;44.38;;
31692;SDS011;37436;53.230;6.614;2022-10-15T06:47:25;140.55;;;42.75;;
31692;SDS011;37436;53.230;6.614;2022-10-15T06:49:51;133.30;;;42.28;;
31692;SDS011;37436;53.230;6.614;2022-10-15T06:52:17;127.53;;;40.00;;
31692;SDS011;37436;53.230;6.614;2022-10-15T06:54:43;134.35;;;43.05;;
31692;SDS011;37436;53.230;6.614;2022-10-15T06:57:09;145.10;;;45.80;;
31692;SDS011;37436;53.230;6.614;2022-10-15T06:59:35;156.07;;;45.97;;
31692;SDS011;37436;53.230;6.614;2022-10-15T07:02:01;132.63;;;41.80;;
31692;SDS011;37436;53.230;6.614;2022-10-15T07:04:27;140.23;;;43.60;;
31692;SDS011;37436;53.230;6.614;2022-10-15T07:06:53;121.65;;;37.50;;
31692;SDS011;37436;53.230;6.614;2022-10-15T07:09:19;107.05;;;39.45;;
31692;SDS011;37436;53.230;6.614;2022-10-15T07:11:45;117.60;;;40.78;;
31692;SDS011;37436;53.230;6.614;2022-10-15T07:14:11;136.07;;;41.38;;
31692;SDS011;37436;53.230;6.614;2022-10-15T07:16:37;137.13;;;40.80;;
31692;SDS011;37436;53.230;6.614;2022-10-15T07:19:04;146.57;;;43.50;;
31692;SDS011;37436;53.230;6.614;2022-10-15T07:21:30;124.05;;;40.55;;
31692;SDS011;37436;53.230;6.614;2022-10-15T07:23:56;99.53;;;33.95;;
31692;SDS011;37436;53.230;6.614;2022-10-15T07:26:23;141.73;;;44.35;;
31692;SDS011;37436;53.230;6.614;2022-10-15T07:28:55;115.45;;;37.05;;
31692;SDS011;37436;53.230;6.614;2022-10-15T07:31:22;109.07;;;38.17;;
31692;SDS011;37436;53.230;6.614;2022-10-15T07:33:48;126.18;;;41.92;;
31692;SDS011;37436;53.230;6.614;2022-10-15T07:36:14;100.82;;;31.65;;
31692;SDS011;37436;53.230;6.614;2022-10-15T07:38:40;96.10;;;37.70;;
31692;SDS011;37436;53.230;6.614;2022-10-15T07:41:07;110.97;;;39.45;;
31692;SDS011;37436;53.230;6.614;2022-10-15T07:43:34;89.47;;;32.47;;
31692;SDS011;37436;53.230;6.614;2022-10-15T07:46:01;114.43;;;39.13;;
31692;SDS011;37436;53.230;6.614;2022-10-15T07:48:27;117.60;;;37.92;;
31692;SDS011;37436;53.230;6.614;2022-10-15T07:50:54;120.30;;;39.00;;
31692;SDS011;37436;53.230;6.614;2022-10-15T07:53:20;113.28;;;38.65;;
31692;SDS011;37436;53.230;6.614;2022-10-15T07:55:46;80.00;;;30.83;;
31692;SDS011;37436;53.230;6.614;2022-10-15T07:58:12;77.25;;;33.28;;
31692;SDS011;37436;53.230;6.614;2022-10-15T08:00:38;58.33;;;25.20;;
31692;SDS011;37436;53.230;6.614;2022-10-15T08:03:04;54.10;;;24.35;;
31692;SDS011;37436;53.230;6.614;2022-10-15T08:05:30;60.03;;;26.50;;
31692;SDS011;37436;53.230;6.614;2022-10-15T08:07:56;57.97;;;28.23;;
31692;SDS011;37436;53.230;6.614;2022-10-15T08:10:22;54.75;;;26.55;;
31692;SDS011;37436;53.230;6.614;2022-10-15T08:12:48;56.58;;;27.60;;
31692;SDS011;37436;53.230;6.614;2022-10-15T08:15:14;52.17;;;25.38;;
31692;SDS011;37436;53.230;6.614;2022-10-15T08:17:40;59.55;;;24.90;;
31692;SDS011;37436;53.230;6.614;2022-10-15T08:20:07;59.90;;;27.38;;
31692;SDS011;37436;53.230;6.614;2022-10-15T08:22:33;61.00;;;28.13;;
31692;SDS011;37436;53.230;6.614;2022-10-15T08:24:59;49.10;;;22.63;;
31692;SDS011;37436;53.230;6.614;2022-10-15T08:27:25;58.20;;;27.30;;
31692;SDS011;37436;53.230;6.614;2022-10-15T08:29:51;56.58;;;27.70;;
31692;SDS011;37436;53.230;6.614;2022-10-15T08:32:17;63.22;;;30.23;;
31692;SDS011;37436;53.230;6.614;2022-10-15T08:34:43;63.53;;;27.02;;
31692;SDS011;37436;53.230;6.614;2022-10-15T08:37:09;65.57;;;28.60;;
31692;SDS011;37436;53.230;6.614;2022-10-15T08:39:35;68.95;;;31.95;;
31692;SDS011;37436;53.230;6.614;2022-10-15T08:42:03;37.55;;;17.95;;
31692;SDS011;37436;53.230;6.614;2022-10-15T08:44:36;55.08;;;22.15;;
31692;SDS011;37436;53.230;6.614;2022-10-15T08:47:07;48.70;;;26.42;;
31692;SDS011;37436;53.230;6.614;2022-10-15T08:49:42;56.13;;;26.73;;
31692;SDS011;37436;53.230;6.614;2022-10-15T08:52:28;57.63;;;26.83;;
31692;SDS011;37436;53.230;6.614;2022-10-15T08:54:57;51.35;;;25.35;;
31692;SDS011;37436;53.230;6.614;2022-10-15T08:57:35;54.88;;;27.05;;
31692;SDS011;37436;53.230;6.614;2022-10-15T09:00:04;54.25;;;27.27;;
31692;SDS011;37436;53.230;6.614;2022-10-15T09:02:37;52.95;;;26.35;;
31692;SDS011;37436;53.230;6.614;2022-10-15T09:07:39;51.63;;;23.63;;
31692;SDS011;37436;53.230;6.614;2022-10-15T09:15:32;52.65;;;28.15;;
31692;SDS011;37436;53.230;6.614;2022-10-15T09:17:59;62.80;;;31.38;;
31692;SDS011;37436;53.230;6.614;2022-10-15T09:20:28;59.83;;;29.50;;
31692;SDS011;37436;53.230;6.614;2022-10-15T09:22:56;50.50;;;27.23;;
31692;SDS011;37436;53.230;6.614;2022-10-15T09:25:22;54.17;;;26.50;;
31692;SDS011;37436;53.230;6.614;2022-10-15T09:27:49;41.88;;;21.52;;
31692;SDS011;37436;53.230;6.614;2022-10-15T09:30:25;40.72;;;20.60;;
31692;SDS011;37436;53.230;6.614;2022-10-15T09:35:28;46.43;;;23.30;;
31692;SDS011;37436;53.230;6.614;2022-10-15T09:38:08;36.78;;;18.77;;
31692;SDS011;37436;53.230;6.614;2022-10-15T09:43:08;49.72;;;23.83;;
31692;SDS011;37436;53.230;6.614;2022-10-15T09:45:34;46.25;;;22.58;;
31692;SDS011;37436;53.230;6.614;2022-10-15T09:48:01;48.13;;;22.15;;
31692;SDS011;37436;53.230;6.614;2022-10-15T09:50:36;44.50;;;22.67;;
31692;SDS011;37436;53.230;6.614;2022-10-15T10:01:17;41.20;;;18.60;;
31692;SDS011;37436;53.230;6.614;2022-10-15T10:03:43;53.13;;;23.73;;
31692;SDS011;37436;53.230;6.614;2022-10-15T10:06:11;48.13;;;21.38;;
31692;SDS011;37436;53.230;6.614;2022-10-15T10:08:46;45.60;;;20.65;;
31692;SDS011;37436;53.230;6.614;2022-10-15T10:11:14;45.60;;;17.08;;
31692;SDS011;37436;53.230;6.614;2022-10-15T10:16:13;47.35;;;23.00;;
31692;SDS011;37436;53.230;6.614;2022-10-15T10:18:39;56.85;;;26.23;;
31692;SDS011;37436;53.230;6.614;2022-10-15T10:21:21;58.53;;;24.70;;
31692;SDS011;37436;53.230;6.614;2022-10-15T10:23:47;45.72;;;17.55;;
31692;SDS011;37436;53.230;6.614;2022-10-15T10:26:14;61.60;;;25.42;;
31692;SDS011;37436;53.230;6.614;2022-10-15T10:31:09;48.35;;;23.05;;
31692;SDS011;37436;53.230;6.614;2022-10-15T10:36:05;53.28;;;20.60;;
31692;SDS011;37436;53.230;6.614;2022-10-15T10:38:35;41.10;;;18.33;;
31692;SDS011;37436;53.230;6.614;2022-10-15T10:41:03;39.80;;;17.50;;
31692;SDS011;37436;53.230;6.614;2022-10-15T10:43:31;35.67;;;15.85;;
31692;SDS011;37436;53.230;6.614;2022-10-15T10:48:36;36.47;;;16.95;;
31692;SDS011;37436;53.230;6.614;2022-10-15T10:56:40;29.48;;;12.85;;
31692;SDS011;37436;53.230;6.614;2022-10-15T10:59:14;29.60;;;13.68;;
31692;SDS011;37436;53.230;6.614;2022-10-15T11:01:41;33.75;;;16.30;;
31692;SDS011;37436;53.230;6.614;2022-10-15T11:04:17;41.10;;;12.68;;
31692;SDS011;37436;53.230;6.614;2022-10-15T11:07:04;29.80;;;11.52;;
31692;SDS011;37436;53.230;6.614;2022-10-15T11:19:42;30.70;;;15.23;;
31692;SDS011;37436;53.230;6.614;2022-10-15T11:35:06;23.98;;;12.48;;
31692;SDS011;37436;53.230;6.614;2022-10-15T11:42:34;19.65;;;10.82;;
31692;SDS011;37436;53.230;6.614;2022-10-15T11:53:07;24.45;;;14.00;;
31692;SDS011;37436;53.230;6.614;2022-10-15T11:55:49;25.70;;;13.43;;
31692;SDS011;37436;53.230;6.614;2022-10-15T12:00:48;28.52;;;13.07;;
31692;SDS011;37436;53.230;6.614;2022-10-15T12:03:22;25.60;;;13.50;;
31692;SDS011;37436;53.230;6.614;2022-10-15T12:06:04;25.95;;;13.48;;
31692;SDS011;37436;53.230;6.614;2022-10-15T12:08:31;22.02;;;11.07;;
31692;SDS011;37436;53.230;6.614;2022-10-15T12:11:04;29.35;;;13.57;;
31692;SDS011;37436;53.230;6.614;2022-10-15T12:13:34;24.63;;;11.65;;
31692;SDS011;37436;53.230;6.614;2022-10-15T12:20:58;21.95;;;12.52;;
31692;SDS011;37436;53.230;6.614;2022-10-15T12:25:59;23.77;;;12.50;;
31692;SDS011;37436;53.230;6.614;2022-10-15T12:28:28;23.90;;;12.77;;
31692;SDS011;37436;53.230;6.614;2022-10-15T12:31:01;22.92;;;9.43;;
31692;SDS011;37436;53.230;6.614;2022-10-15T12:36:28;26.25;;;10.85;;
31692;SDS011;37436;53.230;6.614;2022-10-15T12:38:58;24.73;;;12.85;;
31692;SDS011;37436;53.230;6.614;2022-10-15T12:44:07;18.77;;;10.02;;
31692;SDS011;37436;53.230;6.614;2022-10-15T12:46:44;19.30;;;9.10;;
31692;SDS011;37436;53.230;6.614;2022-10-15T12:51:52;23.25;;;10.90;;
31692;SDS011;37436;53.230;6.614;2022-10-15T12:56:59;19.77;;;10.95;;
31692;SDS011;37436;53.230;6.614;2022-10-15T13:04:54;21.65;;;9.15;;
31692;SDS011;37436;53.230;6.614;2022-10-15T13:07:22;27.35;;;13.93;;
31692;SDS011;37436;53.230;6.614;2022-10-15T13:09:49;26.45;;;11.85;;
31692;SDS011;37436;53.230;6.614;2022-10-15T13:12:22;29.13;;;15.88;;
31692;SDS011;37436;53.230;6.614;2022-10-15T13:15:00;28.10;;;13.32;;
31692;SDS011;37436;53.230;6.614;2022-10-15T13:17:28;26.40;;;14.35;;
31692;SDS011;37436;53.230;6.614;2022-10-15T13:22:23;32.45;;;15.73;;
31692;SDS011;37436;53.230;6.614;2022-10-15T13:24:49;27.83;;;14.40;;
31692;SDS011;37436;53.230;6.614;2022-10-15T13:27:28;30.80;;;12.95;;
31692;SDS011;37436;53.230;6.614;2022-10-15T13:29:57;30.73;;;14.85;;
31692;SDS011;37436;53.230;6.614;2022-10-15T13:32:23;30.60;;;15.25;;
31692;SDS011;37436;53.230;6.614;2022-10-15T13:34:50;31.52;;;16.48;;
31692;SDS011;37436;53.230;6.614;2022-10-15T13:37:17;33.15;;;16.20;;
31692;SDS011;37436;53.230;6.614;2022-10-15T13:39:44;30.73;;;13.82;;
31692;SDS011;37436;53.230;6.614;2022-10-15T13:42:20;33.85;;;15.30;;
31692;SDS011;37436;53.230;6.614;2022-10-15T13:44:57;34.72;;;15.75;;
31692;SDS011;37436;53.230;6.614;2022-10-15T13:47:26;33.90;;;13.18;;
31692;SDS011;37436;53.230;6.614;2022-10-15T13:53:00;36.50;;;15.88;;
31692;SDS011;37436;53.230;6.614;2022-10-15T13:55:25;37.60;;;13.98;;
31692;SDS011;37436;53.230;6.614;2022-10-15T13:57:58;32.28;;;13.80;;
31692;SDS011;37436;53.230;6.614;2022-10-15T14:00:31;28.23;;;14.10;;
31692;SDS011;37436;53.230;6.614;2022-10-15T14:03:18;27.25;;;14.07;;
31692;SDS011;37436;53.230;6.614;2022-10-15T14:05:46;28.83;;;13.02;;
31692;SDS011;37436;53.230;6.614;2022-10-15T14:08:17;27.88;;;13.82;;
31692;SDS011;37436;53.230;6.614;2022-10-15T14:10:50;33.03;;;14.15;;
31692;SDS011;37436;53.230;6.614;2022-10-15T14:13:17;25.73;;;12.80;;
31692;SDS011;37436;53.230;6.614;2022-10-15T14:18:18;31.50;;;14.30;;
31692;SDS011;37436;53.230;6.614;2022-10-15T14:20:52;34.45;;;15.20;;
31692;SDS011;37436;53.230;6.614;2022-10-15T14:23:22;30.50;;;15.50;;
31692;SDS011;37436;53.230;6.614;2022-10-15T14:25:58;26.98;;;13.57;;
31692;SDS011;37436;53.230;6.614;2022-10-15T14:28:26;31.83;;;13.40;;
31692;SDS011;37436;53.230;6.614;2022-10-15T14:30:52;30.10;;;14.23;;
31692;SDS011;37436;53.230;6.614;2022-10-15T14:33:33;30.52;;;14.32;;
31692;SDS011;37436;53.230;6.614;2022-10-15T14:38:43;28.92;;;12.45;;
31692;SDS011;37436;53.230;6.614;2022-10-15T14:41:23;26.23;;;13.02;;
31692;SDS011;37436;53.230;6.614;2022-10-15T14:46:25;18.77;;;8.90;;
31692;SDS011;37436;53.230;6.614;2022-10-15T14:48:53;19.95;;;11.05;;
31692;SDS011;37436;53.230;6.614;2022-10-15T14:51:22;23.00;;;10.68;;
31692;SDS011;37436;53.230;6.614;2022-10-15T14:53:49;26.35;;;10.68;;
31692;SDS011;37436;53.230;6.614;2022-10-15T14:56:18;22.13;;;10.73;;
31692;SDS011;37436;53.230;6.614;2022-10-15T14:58:48;18.63;;;8.82;;
31692;SDS011;37436;53.230;6.614;2022-10-15T15:01:16;18.25;;;9.68;;
31692;SDS011;37436;53.230;6.614;2022-10-15T15:03:45;19.95;;;9.57;;
31692;SDS011;37436;53.230;6.614;2022-10-15T15:06:12;20.70;;;10.15;;
31692;SDS011;37436;53.230;6.614;2022-10-15T15:08:38;21.65;;;9.95;;
31692;SDS011;37436;53.230;6.614;2022-10-15T15:11:11;15.60;;;8.20;;
31692;SDS011;37436;53.230;6.614;2022-10-15T15:13:47;18.27;;;8.73;;
31692;SDS011;37436;53.230;6.614;2022-10-15T15:16:16;14.45;;;7.40;;
31692;SDS011;37436;53.230;6.614;2022-10-15T15:18:43;18.17;;;8.80;;
31692;SDS011;37436;53.230;6.614;2022-10-15T15:21:12;18.08;;;9.35;;
31692;SDS011;37436;53.230;6.614;2022-10-15T15:23:41;16.80;;;8.38;;
31692;SDS011;37436;53.230;6.614;2022-10-15T15:26:07;21.02;;;8.60;;
31692;SDS011;37436;53.230;6.614;2022-10-15T15:28:33;15.32;;;7.28;;
31692;SDS011;37436;53.230;6.614;2022-10-15T15:33:26;12.00;;;7.30;;
31692;SDS011;37436;53.230;6.614;2022-10-15T15:38:48;15.63;;;8.02;;
31692;SDS011;37436;53.230;6.614;2022-10-15T15:41:21;18.70;;;7.28;;
31692;SDS011;37436;53.230;6.614;2022-10-15T15:43:50;15.27;;;6.82;;
31692;SDS011;37436;53.230;6.614;2022-10-15T15:46:18;14.38;;;7.63;;
31692;SDS011;37436;53.230;6.614;2022-10-15T15:48:44;14.30;;;7.22;;
31692;SDS011;37436;53.230;6.614;2022-10-15T15:53:45;11.20;;;6.57;;
31692;SDS011;37436;53.230;6.614;2022-10-15T15:56:23;8.73;;;5.18;;
31692;SDS011;37436;53.230;6.614;2022-10-15T15:58:52;12.23;;;6.13;;
31692;SDS011;37436;53.230;6.614;2022-10-15T16:01:19;12.27;;;6.85;;
31692;SDS011;37436;53.230;6.614;2022-10-15T16:03:47;12.52;;;6.40;;
31692;SDS011;37436;53.230;6.614;2022-10-15T16:06:13;11.68;;;6.03;;
31692;SDS011;37436;53.230;6.614;2022-10-15T16:08:43;8.65;;;5.38;;
31692;SDS011;37436;53.230;6.614;2022-10-15T16:11:09;14.95;;;8.00;;
31692;SDS011;37436;53.230;6.614;2022-10-15T16:13:41;7.88;;;4.80;;
31692;SDS011;37436;53.230;6.614;2022-10-15T16:16:09;10.02;;;4.97;;
31692;SDS011;37436;53.230;6.614;2022-10-15T16:18:36;8.40;;;4.72;;
31692;SDS011;37436;53.230;6.614;2022-10-15T16:21:03;10.70;;;5.43;;
31692;SDS011;37436;53.230;6.614;2022-10-15T16:23:49;11.75;;;4.38;;
31692;SDS011;37436;53.230;6.614;2022-10-15T16:26:18;8.73;;;4.97;;
31692;SDS011;37436;53.230;6.614;2022-10-15T16:28:44;10.48;;;4.78;;
31692;SDS011;37436;53.230;6.614;2022-10-15T16:31:20;10.05;;;4.80;;
31692;SDS011;37436;53.230;6.614;2022-10-15T16:33:49;7.53;;;4.03;;
31692;SDS011;37436;53.230;6.614;2022-10-15T16:36:16;9.07;;;4.80;;
31692;SDS011;37436;53.230;6.614;2022-10-15T16:38:45;8.70;;;4.50;;
31692;SDS011;37436;53.230;6.614;2022-10-15T16:41:19;9.55;;;4.15;;
31692;SDS011;37436;53.230;6.614;2022-10-15T16:43:45;6.88;;;4.03;;
31692;SDS011;37436;53.230;6.614;2022-10-15T16:46:19;6.78;;;3.88;;
31692;SDS011;37436;53.230;6.614;2022-10-15T16:49:09;13.00;;;4.55;;
31692;SDS011;37436;53.230;6.614;2022-10-15T16:51:55;10.40;;;5.43;;
31692;SDS011;37436;53.230;6.614;2022-10-15T16:54:24;7.30;;;4.72;;